sensor_id;sensor_type;location;lat;lon;timestamp;temperature;humidity
17774;DHT22;9011;33.236;-97.118;2024-02-26T00:01:02;27.60;86.80
17774;DHT22;9011;33.236;-97.118;2024-02-26T00:03:30;27.40;88.80
17774;DHT22;9011;33.236;-97.118;2024-02-26T00:05:59;27.20;89.60
17774;DHT22;9011;33.236;-97.118;2024-02-26T00:08:27;27.10;90.30
17774;DHT22;9011;33.236;-97.118;2024-02-26T00:10:55;26.90;90.10
17774;DHT22;9011;33.236;-97.118;2024-02-26T00:13:23;26.80;90.80
17774;DHT22;9011;33.236;-97.118;2024-02-26T00:15:50;26.50;90.40
17774;DHT22;9011;33.236;-97.118;2024-02-26T00:18:18;26.40;91.90
17774;DHT22;9011;33.236;-97.118;2024-02-26T00:20:46;26.20;91.60
17774;DHT22;9011;33.236;-97.118;2024-02-26T00:23:15;26.00;93.70
17774;DHT22;9011;33.236;-97.118;2024-02-26T01:39:38;21.10;97.30
17774;DHT22;9011;33.236;-97.118;2024-02-26T01:42:07;21.00;96.60
17774;DHT22;9011;33.236;-97.118;2024-02-26T01:44:34;20.90;97.00
17774;DHT22;9011;33.236;-97.118;2024-02-26T02:04:20;20.00;98.20
17774;DHT22;9011;33.236;-97.118;2024-02-26T02:06:49;19.90;97.20
17774;DHT22;9011;33.236;-97.118;2024-02-26T02:09:18;19.90;98.30
17774;DHT22;9011;33.236;-97.118;2024-02-26T02:14:15;19.80;95.70
17774;DHT22;9011;33.236;-97.118;2024-02-26T02:29:03;17.90;99.90
17774;DHT22;9011;33.236;-97.118;2024-02-26T02:36:26;18.90;99.90
17774;DHT22;9011;33.236;-97.118;2024-02-26T02:38:55;18.90;99.90
17774;DHT22;9011;33.236;-97.118;2024-02-26T02:43:50;18.70;99.90
17774;DHT22;9011;33.236;-97.118;2024-02-26T02:46:17;18.70;99.70
17774;DHT22;9011;33.236;-97.118;2024-02-26T02:56:08;18.40;98.90
17774;DHT22;9011;33.236;-97.118;2024-02-26T02:58:36;18.30;99.20
17774;DHT22;9011;33.236;-97.118;2024-02-26T03:01:03;18.30;99.10
17774;DHT22;9011;33.236;-97.118;2024-02-26T03:03:31;18.20;98.60
17774;DHT22;9011;33.236;-97.118;2024-02-26T03:05:59;18.10;98.70
17774;DHT22;9011;33.236;-97.118;2024-02-26T03:08:26;18.00;98.80
17774;DHT22;9011;33.236;-97.118;2024-02-26T03:10:54;17.90;99.00
17774;DHT22;9011;33.236;-97.118;2024-02-26T03:13:23;17.90;99.90
17774;DHT22;9011;33.236;-97.118;2024-02-26T03:18:18;17.80;99.80
17774;DHT22;9011;33.236;-97.118;2024-02-26T03:20:45;17.70;99.90
17774;DHT22;9011;33.236;-97.118;2024-02-26T03:23:13;17.60;99.90
17774;DHT22;9011;33.236;-97.118;2024-02-26T03:25:42;17.60;99.90
17774;DHT22;9011;33.236;-97.118;2024-02-26T03:28:10;17.60;99.90
17774;DHT22;9011;33.236;-97.118;2024-02-26T03:30:38;17.50;99.90
17774;DHT22;9011;33.236;-97.118;2024-02-26T03:33:06;17.40;99.90
17774;DHT22;9011;33.236;-97.118;2024-02-26T03:45:24;17.00;99.40
17774;DHT22;9011;33.236;-97.118;2024-02-26T03:50:21;16.90;99.90
17774;DHT22;9011;33.236;-97.118;2024-02-26T03:52:49;16.80;99.90
17774;DHT22;9011;33.236;-97.118;2024-02-26T03:57:51;16.70;99.90
17774;DHT22;9011;33.236;-97.118;2024-02-26T04:00:19;16.70;99.90
17774;DHT22;9011;33.236;-97.118;2024-02-26T04:02:47;16.70;99.90
17774;DHT22;9011;33.236;-97.118;2024-02-26T04:05:16;16.70;99.90
17774;DHT22;9011;33.236;-97.118;2024-02-26T04:07:44;16.60;99.90
17774;DHT22;9011;33.236;-97.118;2024-02-26T04:10:11;16.70;99.90
17774;DHT22;9011;33.236;-97.118;2024-02-26T04:12:40;16.60;99.90
17774;DHT22;9011;33.236;-97.118;2024-02-26T04:15:08;16.60;99.90
17774;DHT22;9011;33.236;-97.118;2024-02-26T04:17:37;16.60;99.90
17774;DHT22;9011;33.236;-97.118;2024-02-26T04:20:06;16.50;99.90
17774;DHT22;9011;33.236;-97.118;2024-02-26T04:22:34;16.40;99.90
17774;DHT22;9011;33.236;-97.118;2024-02-26T04:25:02;16.40;99.90
17774;DHT22;9011;33.236;-97.118;2024-02-26T04:27:30;16.50;99.90
17774;DHT22;9011;33.236;-97.118;2024-02-26T04:29:57;16.40;99.90
17774;DHT22;9011;33.236;-97.118;2024-02-26T04:32:25;16.40;99.90
17774;DHT22;9011;33.236;-97.118;2024-02-26T05:56:20;14.90;99.90
17774;DHT22;9011;33.236;-97.118;2024-02-26T06:03:44;14.80;99.90
17774;DHT22;9011;33.236;-97.118;2024-02-26T06:06:13;15.00;99.90
17774;DHT22;9011;33.236;-97.118;2024-02-26T06:08:41;15.00;99.90
17774;DHT22;9011;33.236;-97.118;2024-02-26T06:11:09;15.00;99.90
17774;DHT22;9011;33.236;-97.118;2024-02-26T06:13:36;14.70;99.90
17774;DHT22;9011;33.236;-97.118;2024-02-26T06:16:04;14.90;99.90
17774;DHT22;9011;33.236;-97.118;2024-02-26T06:18:32;14.90;99.90
17774;DHT22;9011;33.236;-97.118;2024-02-26T06:20:59;14.90;99.90
17774;DHT22;9011;33.236;-97.118;2024-02-26T06:38:15;14.90;99.90
17774;DHT22;9011;33.236;-97.118;2024-02-26T06:43:12;14.80;99.90
17774;DHT22;9011;33.236;-97.118;2024-02-26T06:45:39;14.90;99.90
17774;DHT22;9011;33.236;-97.118;2024-02-26T06:48:07;14.90;99.90
17774;DHT22;9011;33.236;-97.118;2024-02-26T06:50:35;15.00;99.90
17774;DHT22;9011;33.236;-97.118;2024-02-26T06:53:03;15.10;99.90
17774;DHT22;9011;33.236;-97.118;2024-02-26T06:55:31;15.20;99.90
17774;DHT22;9011;33.236;-97.118;2024-02-26T06:57:59;15.40;99.90
17774;DHT22;9011;33.236;-97.118;2024-02-26T07:00:27;15.50;99.90
17774;DHT22;9011;33.236;-97.118;2024-02-26T07:02:55;15.50;99.90
17774;DHT22;9011;33.236;-97.118;2024-02-26T07:05:22;15.60;99.90
17774;DHT22;9011;33.236;-97.118;2024-02-26T07:07:50;15.60;99.90
17774;DHT22;9011;33.236;-97.118;2024-02-26T07:10:18;15.70;99.90
17774;DHT22;9011;33.236;-97.118;2024-02-26T07:12:46;15.70;99.90
17774;DHT22;9011;33.236;-97.118;2024-02-26T07:15:14;15.70;99.90
17774;DHT22;9011;33.236;-97.118;2024-02-26T07:17:42;15.80;99.90
17774;DHT22;9011;33.236;-97.118;2024-02-26T07:20:13;15.80;99.90
17774;DHT22;9011;33.236;-97.118;2024-02-26T07:22:41;15.90;99.90
17774;DHT22;9011;33.236;-97.118;2024-02-26T07:25:10;16.00;99.90
17774;DHT22;9011;33.236;-97.118;2024-02-26T07:27:39;16.10;99.90
17774;DHT22;9011;33.236;-97.118;2024-02-26T07:30:08;16.10;99.90
17774;DHT22;9011;33.236;-97.118;2024-02-26T07:32:37;16.10;99.90
17774;DHT22;9011;33.236;-97.118;2024-02-26T07:35:05;16.20;99.90
17774;DHT22;9011;33.236;-97.118;2024-02-26T07:40:00;16.20;99.90
17774;DHT22;9011;33.236;-97.118;2024-02-26T07:42:28;16.20;99.90
17774;DHT22;9011;33.236;-97.118;2024-02-26T07:44:56;16.20;99.90
17774;DHT22;9011;33.236;-97.118;2024-02-26T07:47:24;16.20;99.90
17774;DHT22;9011;33.236;-97.118;2024-02-26T07:49:52;16.20;99.90
17774;DHT22;9011;33.236;-97.118;2024-02-26T07:54:47;16.10;99.90
17774;DHT22;9011;33.236;-97.118;2024-02-26T07:59:43;16.10;99.90
17774;DHT22;9011;33.236;-97.118;2024-02-26T08:02:15;16.10;99.90
17774;DHT22;9011;33.236;-97.118;2024-02-26T08:04:43;16.10;99.90
17774;DHT22;9011;33.236;-97.118;2024-02-26T08:07:12;16.10;99.90
17774;DHT22;9011;33.236;-97.118;2024-02-26T08:09:39;16.00;99.90
17774;DHT22;9011;33.236;-97.118;2024-02-26T08:12:07;16.00;99.90
17774;DHT22;9011;33.236;-97.118;2024-02-26T08:14:35;16.00;99.90
17774;DHT22;9011;33.236;-97.118;2024-02-26T08:17:03;16.00;99.90
17774;DHT22;9011;33.236;-97.118;2024-02-26T08:19:30;16.00;99.90
17774;DHT22;9011;33.236;-97.118;2024-02-26T08:21:58;16.00;99.90
17774;DHT22;9011;33.236;-97.118;2024-02-26T08:24:26;16.00;99.90
17774;DHT22;9011;33.236;-97.118;2024-02-26T08:26:54;16.10;99.90
17774;DHT22;9011;33.236;-97.118;2024-02-26T08:29:22;16.00;99.90
17774;DHT22;9011;33.236;-97.118;2024-02-26T08:31:49;16.00;99.90
17774;DHT22;9011;33.236;-97.118;2024-02-26T08:34:17;16.00;99.90
17774;DHT22;9011;33.236;-97.118;2024-02-26T08:39:12;16.00;99.90
17774;DHT22;9011;33.236;-97.118;2024-02-26T08:41:41;16.00;99.90
17774;DHT22;9011;33.236;-97.118;2024-02-26T08:46:36;16.00;99.90
17774;DHT22;9011;33.236;-97.118;2024-02-26T08:49:04;16.00;99.90
17774;DHT22;9011;33.236;-97.118;2024-02-26T08:51:32;16.00;99.90
17774;DHT22;9011;33.236;-97.118;2024-02-26T08:53:59;16.00;99.90
17774;DHT22;9011;33.236;-97.118;2024-02-26T08:56:27;15.90;99.90
17774;DHT22;9011;33.236;-97.118;2024-02-26T08:58:55;16.00;99.90
17774;DHT22;9011;33.236;-97.118;2024-02-26T09:01:23;15.90;99.90
17774;DHT22;9011;33.236;-97.118;2024-02-26T09:03:51;15.90;99.90
17774;DHT22;9011;33.236;-97.118;2024-02-26T09:06:18;15.90;99.90
17774;DHT22;9011;33.236;-97.118;2024-02-26T09:08:46;15.90;99.90
17774;DHT22;9011;33.236;-97.118;2024-02-26T09:11:14;15.80;99.90
17774;DHT22;9011;33.236;-97.118;2024-02-26T09:13:41;15.80;99.90
17774;DHT22;9011;33.236;-97.118;2024-02-26T09:16:11;15.80;99.90
17774;DHT22;9011;33.236;-97.118;2024-02-26T09:18:39;15.80;99.90
17774;DHT22;9011;33.236;-97.118;2024-02-26T09:21:07;15.70;99.90
17774;DHT22;9011;33.236;-97.118;2024-02-26T09:23:34;15.70;99.90
17774;DHT22;9011;33.236;-97.118;2024-02-26T09:26:04;15.70;99.90
17774;DHT22;9011;33.236;-97.118;2024-02-26T09:28:32;15.70;99.90
17774;DHT22;9011;33.236;-97.118;2024-02-26T09:31:04;15.70;99.90
17774;DHT22;9011;33.236;-97.118;2024-02-26T09:33:33;15.60;99.90
17774;DHT22;9011;33.236;-97.118;2024-02-26T09:36:01;15.60;99.90
17774;DHT22;9011;33.236;-97.118;2024-02-26T09:40:57;15.50;99.90
17774;DHT22;9011;33.236;-97.118;2024-02-26T09:43:26;15.40;99.90
17774;DHT22;9011;33.236;-97.118;2024-02-26T09:45:56;15.30;99.90
17774;DHT22;9011;33.236;-97.118;2024-02-26T09:48:24;15.30;99.90
17774;DHT22;9011;33.236;-97.118;2024-02-26T09:50:53;15.20;99.90
17774;DHT22;9011;33.236;-97.118;2024-02-26T09:53:22;15.10;99.90
17774;DHT22;9011;33.236;-97.118;2024-02-26T09:55:50;15.00;99.90
17774;DHT22;9011;33.236;-97.118;2024-02-26T09:58:18;14.90;99.90
17774;DHT22;9011;33.236;-97.118;2024-02-26T10:00:53;15.00;99.90
17774;DHT22;9011;33.236;-97.118;2024-02-26T10:03:28;14.90;99.90
17774;DHT22;9011;33.236;-97.118;2024-02-26T10:05:57;14.90;99.90
17774;DHT22;9011;33.236;-97.118;2024-02-26T10:08:25;14.70;99.90
17774;DHT22;9011;33.236;-97.118;2024-02-26T10:10:55;14.60;99.90
17774;DHT22;9011;33.236;-97.118;2024-02-26T10:13:23;14.60;99.90
17774;DHT22;9011;33.236;-97.118;2024-02-26T10:15:51;14.60;99.90
17774;DHT22;9011;33.236;-97.118;2024-02-26T10:18:19;14.50;99.90
17774;DHT22;9011;33.236;-97.118;2024-02-26T10:21:00;14.40;99.90
17774;DHT22;9011;33.236;-97.118;2024-02-26T10:23:28;14.50;99.90
17774;DHT22;9011;33.236;-97.118;2024-02-26T10:25:55;14.40;99.90
17774;DHT22;9011;33.236;-97.118;2024-02-26T10:28:23;14.50;99.90
17774;DHT22;9011;33.236;-97.118;2024-02-26T10:30:52;14.50;99.90
17774;DHT22;9011;33.236;-97.118;2024-02-26T10:33:19;14.50;99.90
17774;DHT22;9011;33.236;-97.118;2024-02-26T10:35:47;14.40;99.90
17774;DHT22;9011;33.236;-97.118;2024-02-26T10:38:16;14.40;99.90
17774;DHT22;9011;33.236;-97.118;2024-02-26T10:40:46;14.40;99.90
17774;DHT22;9011;33.236;-97.118;2024-02-26T10:43:16;14.40;99.90
17774;DHT22;9011;33.236;-97.118;2024-02-26T10:45:45;14.30;99.90
17774;DHT22;9011;33.236;-97.118;2024-02-26T10:48:14;14.10;99.90
17774;DHT22;9011;33.236;-97.118;2024-02-26T10:50:43;14.10;99.90
17774;DHT22;9011;33.236;-97.118;2024-02-26T10:53:15;14.00;99.90
17774;DHT22;9011;33.236;-97.118;2024-02-26T10:55:48;14.00;99.90
17774;DHT22;9011;33.236;-97.118;2024-02-26T10:58:17;14.00;99.90
17774;DHT22;9011;33.236;-97.118;2024-02-26T11:00:45;13.90;99.90
17774;DHT22;9011;33.236;-97.118;2024-02-26T11:03:15;13.90;99.90
17774;DHT22;9011;33.236;-97.118;2024-02-26T11:05:47;13.80;99.90
17774;DHT22;9011;33.236;-97.118;2024-02-26T11:08:16;13.80;99.90
17774;DHT22;9011;33.236;-97.118;2024-02-26T11:10:47;13.80;99.90
17774;DHT22;9011;33.236;-97.118;2024-02-26T11:13:18;13.60;99.90
17774;DHT22;9011;33.236;-97.118;2024-02-26T11:15:46;13.50;99.90
17774;DHT22;9011;33.236;-97.118;2024-02-26T11:18:15;13.30;99.90
17774;DHT22;9011;33.236;-97.118;2024-02-26T11:20:44;13.10;99.90
17774;DHT22;9011;33.236;-97.118;2024-02-26T11:23:12;13.10;99.90
17774;DHT22;9011;33.236;-97.118;2024-02-26T11:25:39;13.20;99.90
17774;DHT22;9011;33.236;-97.118;2024-02-26T11:28:10;13.10;99.90
17774;DHT22;9011;33.236;-97.118;2024-02-26T11:30:42;13.10;99.90
17774;DHT22;9011;33.236;-97.118;2024-02-26T11:33:12;13.00;99.90
17774;DHT22;9011;33.236;-97.118;2024-02-26T11:35:40;13.10;99.90
17774;DHT22;9011;33.236;-97.118;2024-02-26T11:38:08;12.90;99.90
17774;DHT22;9011;33.236;-97.118;2024-02-26T11:40:44;13.00;99.90
17774;DHT22;9011;33.236;-97.118;2024-02-26T11:43:13;12.90;99.90
17774;DHT22;9011;33.236;-97.118;2024-02-26T11:45:50;13.00;99.90
17774;DHT22;9011;33.236;-97.118;2024-02-26T11:48:22;12.90;99.90
17774;DHT22;9011;33.236;-97.118;2024-02-26T11:50:51;12.80;99.90
17774;DHT22;9011;33.236;-97.118;2024-02-26T11:53:23;12.80;99.90
17774;DHT22;9011;33.236;-97.118;2024-02-26T11:56:22;12.80;99.90
17774;DHT22;9011;33.236;-97.118;2024-02-26T11:58:57;12.90;99.90
17774;DHT22;9011;33.236;-97.118;2024-02-26T12:01:42;12.90;99.90
17774;DHT22;9011;33.236;-97.118;2024-02-26T12:04:13;12.90;99.90
17774;DHT22;9011;33.236;-97.118;2024-02-26T12:06:43;12.90;99.90
17774;DHT22;9011;33.236;-97.118;2024-02-26T12:09:11;13.00;99.90
17774;DHT22;9011;33.236;-97.118;2024-02-26T12:11:39;13.00;99.90
17774;DHT22;9011;33.236;-97.118;2024-02-26T12:14:09;13.00;99.90
17774;DHT22;9011;33.236;-97.118;2024-02-26T12:16:37;12.90;99.90
17774;DHT22;9011;33.236;-97.118;2024-02-26T12:19:06;12.90;99.90
17774;DHT22;9011;33.236;-97.118;2024-02-26T12:21:35;12.80;99.90
17774;DHT22;9011;33.236;-97.118;2024-02-26T12:24:13;12.80;99.90
17774;DHT22;9011;33.236;-97.118;2024-02-26T12:26:42;12.70;99.90
17774;DHT22;9011;33.236;-97.118;2024-02-26T12:29:11;12.70;99.90
17774;DHT22;9011;33.236;-97.118;2024-02-26T12:31:40;12.50;99.90
17774;DHT22;9011;33.236;-97.118;2024-02-26T12:34:08;12.40;99.90
17774;DHT22;9011;33.236;-97.118;2024-02-26T12:36:36;12.40;99.90
17774;DHT22;9011;33.236;-97.118;2024-02-26T12:39:05;12.40;99.90
17774;DHT22;9011;33.236;-97.118;2024-02-26T12:41:32;12.30;99.90
17774;DHT22;9011;33.236;-97.118;2024-02-26T12:44:00;12.30;99.90
17774;DHT22;9011;33.236;-97.118;2024-02-26T12:46:29;12.30;99.90
17774;DHT22;9011;33.236;-97.118;2024-02-26T12:48:58;12.20;99.90
17774;DHT22;9011;33.236;-97.118;2024-02-26T12:51:26;12.10;99.90
17774;DHT22;9011;33.236;-97.118;2024-02-26T12:53:54;12.10;99.90
17774;DHT22;9011;33.236;-97.118;2024-02-26T12:56:22;12.10;99.90
17774;DHT22;9011;33.236;-97.118;2024-02-26T12:58:51;12.10;99.90
17774;DHT22;9011;33.236;-97.118;2024-02-26T13:01:22;12.00;99.90
17774;DHT22;9011;33.236;-97.118;2024-02-26T13:03:51;12.10;99.90
17774;DHT22;9011;33.236;-97.118;2024-02-26T13:06:20;11.90;99.90
17774;DHT22;9011;33.236;-97.118;2024-02-26T13:08:48;11.90;99.90
17774;DHT22;9011;33.236;-97.118;2024-02-26T13:11:16;11.80;99.90
17774;DHT22;9011;33.236;-97.118;2024-02-26T13:13:48;11.80;99.90
17774;DHT22;9011;33.236;-97.118;2024-02-26T13:16:16;11.80;99.90
17774;DHT22;9011;33.236;-97.118;2024-02-26T13:18:43;11.80;99.90
17774;DHT22;9011;33.236;-97.118;2024-02-26T13:21:14;11.80;99.90
17774;DHT22;9011;33.236;-97.118;2024-02-26T13:23:43;11.90;99.90
17774;DHT22;9011;33.236;-97.118;2024-02-26T13:26:13;11.90;99.90
17774;DHT22;9011;33.236;-97.118;2024-02-26T13:28:41;11.80;99.90
17774;DHT22;9011;33.236;-97.118;2024-02-26T13:31:08;11.80;99.90
17774;DHT22;9011;33.236;-97.118;2024-02-26T13:33:36;11.80;99.90
17774;DHT22;9011;33.236;-97.118;2024-02-26T13:36:04;11.80;99.90
17774;DHT22;9011;33.236;-97.118;2024-02-26T13:38:33;12.00;99.90
17774;DHT22;9011;33.236;-97.118;2024-02-26T13:41:01;12.30;99.90
17774;DHT22;9011;33.236;-97.118;2024-02-26T13:43:28;12.40;99.90
17774;DHT22;9011;33.236;-97.118;2024-02-26T13:45:56;12.70;99.90
17774;DHT22;9011;33.236;-97.118;2024-02-26T13:48:23;12.90;99.90
17774;DHT22;9011;33.236;-97.118;2024-02-26T13:50:51;13.20;99.90
17774;DHT22;9011;33.236;-97.118;2024-02-26T13:53:19;13.30;99.90
17774;DHT22;9011;33.236;-97.118;2024-02-26T13:55:48;13.50;99.90
17774;DHT22;9011;33.236;-97.118;2024-02-26T13:58:16;13.70;99.90
17774;DHT22;9011;33.236;-97.118;2024-02-26T14:00:49;13.80;99.90
17774;DHT22;9011;33.236;-97.118;2024-02-26T14:03:16;13.90;99.90
17774;DHT22;9011;33.236;-97.118;2024-02-26T14:05:45;14.10;99.90
17774;DHT22;9011;33.236;-97.118;2024-02-26T14:08:13;14.20;99.90
17774;DHT22;9011;33.236;-97.118;2024-02-26T14:10:41;14.40;99.90
17774;DHT22;9011;33.236;-97.118;2024-02-26T14:13:09;14.70;99.90
17774;DHT22;9011;33.236;-97.118;2024-02-26T14:15:37;14.90;99.90
17774;DHT22;9011;33.236;-97.118;2024-02-26T14:18:06;15.10;99.90
17774;DHT22;9011;33.236;-97.118;2024-02-26T14:20:34;15.40;99.90
17774;DHT22;9011;33.236;-97.118;2024-02-26T14:23:02;15.50;99.90
17774;DHT22;9011;33.236;-97.118;2024-02-26T14:25:30;15.80;99.90
17774;DHT22;9011;33.236;-97.118;2024-02-26T14:27:57;15.90;99.90
17774;DHT22;9011;33.236;-97.118;2024-02-26T14:30:26;16.00;99.90
17774;DHT22;9011;33.236;-97.118;2024-02-26T14:32:54;16.10;99.90
17774;DHT22;9011;33.236;-97.118;2024-02-26T14:35:22;16.30;99.90
17774;DHT22;9011;33.236;-97.118;2024-02-26T14:37:49;16.60;99.90
17774;DHT22;9011;33.236;-97.118;2024-02-26T14:40:18;16.80;99.90
17774;DHT22;9011;33.236;-97.118;2024-02-26T14:42:45;17.00;99.90
17774;DHT22;9011;33.236;-97.118;2024-02-26T14:45:13;17.30;99.90
17774;DHT22;9011;33.236;-97.118;2024-02-26T14:47:42;17.50;99.90
17774;DHT22;9011;33.236;-97.118;2024-02-26T14:50:09;17.70;99.90
17774;DHT22;9011;33.236;-97.118;2024-02-26T14:52:37;17.80;99.90
17774;DHT22;9011;33.236;-97.118;2024-02-26T14:55:05;18.00;99.90
17774;DHT22;9011;33.236;-97.118;2024-02-26T14:57:33;18.20;99.90
17774;DHT22;9011;33.236;-97.118;2024-02-26T15:00:01;18.30;99.90
17774;DHT22;9011;33.236;-97.118;2024-02-26T15:02:31;18.50;99.90
17774;DHT22;9011;33.236;-97.118;2024-02-26T15:05:00;18.60;99.90
17774;DHT22;9011;33.236;-97.118;2024-02-26T15:07:28;18.90;99.90
17774;DHT22;9011;33.236;-97.118;2024-02-26T15:09:55;19.10;99.90
17774;DHT22;9011;33.236;-97.118;2024-02-26T15:12:25;19.20;99.90
17774;DHT22;9011;33.236;-97.118;2024-02-26T15:14:54;19.40;99.90
17774;DHT22;9011;33.236;-97.118;2024-02-26T15:17:22;19.60;99.90
17774;DHT22;9011;33.236;-97.118;2024-02-26T15:19:50;19.80;99.90
17774;DHT22;9011;33.236;-97.118;2024-02-26T15:24:46;20.10;99.90
17774;DHT22;9011;33.236;-97.118;2024-02-26T15:27:14;20.30;99.90
17774;DHT22;9011;33.236;-97.118;2024-02-26T15:29:43;20.40;99.90
17774;DHT22;9011;33.236;-97.118;2024-02-26T15:32:11;20.70;99.90
17774;DHT22;9011;33.236;-97.118;2024-02-26T15:34:38;20.80;99.30
17774;DHT22;9011;33.236;-97.118;2024-02-26T15:37:06;21.00;98.90
17774;DHT22;9011;33.236;-97.118;2024-02-26T15:39:34;21.30;98.80
17774;DHT22;9011;33.236;-97.118;2024-02-26T15:42:03;21.50;98.20
17774;DHT22;9011;33.236;-97.118;2024-02-26T15:44:30;21.80;98.00
17774;DHT22;9011;33.236;-97.118;2024-02-26T15:46:58;22.00;96.90
17774;DHT22;9011;33.236;-97.118;2024-02-26T15:49:26;22.20;96.90
17774;DHT22;9011;33.236;-97.118;2024-02-26T15:51:53;22.50;96.80
17774;DHT22;9011;33.236;-97.118;2024-02-26T15:54:21;22.60;95.90
17774;DHT22;9011;33.236;-97.118;2024-02-26T15:56:49;22.90;96.80
17774;DHT22;9011;33.236;-97.118;2024-02-26T15:59:17;23.10;95.40
17774;DHT22;9011;33.236;-97.118;2024-02-26T16:01:45;23.40;95.60
17774;DHT22;9011;33.236;-97.118;2024-02-26T16:04:14;23.60;94.60
17774;DHT22;9011;33.236;-97.118;2024-02-26T16:06:43;23.80;94.70
17774;DHT22;9011;33.236;-97.118;2024-02-26T16:09:11;24.20;94.50
17774;DHT22;9011;33.236;-97.118;2024-02-26T16:11:38;24.40;93.30
17774;DHT22;9011;33.236;-97.118;2024-02-26T16:14:13;24.60;93.30
17774;DHT22;9011;33.236;-97.118;2024-02-26T16:16:49;24.70;92.40
17774;DHT22;9011;33.236;-97.118;2024-02-26T16:19:20;25.00;92.00
17774;DHT22;9011;33.236;-97.118;2024-02-26T16:21:48;25.20;91.60
17774;DHT22;9011;33.236;-97.118;2024-02-26T16:24:16;25.30;91.00
17774;DHT22;9011;33.236;-97.118;2024-02-26T16:26:43;25.50;90.60
17774;DHT22;9011;33.236;-97.118;2024-02-26T16:29:12;25.70;91.50
17774;DHT22;9011;33.236;-97.118;2024-02-26T16:31:39;25.90;90.10
17774;DHT22;9011;33.236;-97.118;2024-02-26T16:34:07;26.10;90.40
17774;DHT22;9011;33.236;-97.118;2024-02-26T16:36:34;26.30;90.50
17774;DHT22;9011;33.236;-97.118;2024-02-26T16:39:02;26.40;90.80
17774;DHT22;9011;33.236;-97.118;2024-02-26T16:41:30;26.60;90.70
17774;DHT22;9011;33.236;-97.118;2024-02-26T16:44:00;26.70;89.70
17774;DHT22;9011;33.236;-97.118;2024-02-26T16:46:28;26.80;90.40
17774;DHT22;9011;33.236;-97.118;2024-02-26T16:48:56;26.80;90.10
17774;DHT22;9011;33.236;-97.118;2024-02-26T16:51:24;26.90;90.50
17774;DHT22;9011;33.236;-97.118;2024-02-26T16:53:51;26.90;90.20
17774;DHT22;9011;33.236;-97.118;2024-02-26T16:56:19;26.90;90.00
17774;DHT22;9011;33.236;-97.118;2024-02-26T16:58:46;27.10;90.40
17774;DHT22;9011;33.236;-97.118;2024-02-26T17:01:14;27.40;90.10
17774;DHT22;9011;33.236;-97.118;2024-02-26T17:03:42;27.40;90.30
17774;DHT22;9011;33.236;-97.118;2024-02-26T17:08:37;27.50;89.80
17774;DHT22;9011;33.236;-97.118;2024-02-26T17:11:05;27.60;90.40
17774;DHT22;9011;33.236;-97.118;2024-02-26T17:13:33;27.90;90.50
17774;DHT22;9011;33.236;-97.118;2024-02-26T17:16:01;28.10;90.40
17774;DHT22;9011;33.236;-97.118;2024-02-26T17:18:29;27.80;89.60
17774;DHT22;9011;33.236;-97.118;2024-02-26T17:20:57;28.00;90.10
17774;DHT22;9011;33.236;-97.118;2024-02-26T17:23:25;28.30;90.10
17774;DHT22;9011;33.236;-97.118;2024-02-26T17:25:53;28.30;90.10
17774;DHT22;9011;33.236;-97.118;2024-02-26T17:28:21;28.50;90.10
17774;DHT22;9011;33.236;-97.118;2024-02-26T17:30:48;28.60;89.00
17774;DHT22;9011;33.236;-97.118;2024-02-26T17:33:16;28.60;90.30
17774;DHT22;9011;33.236;-97.118;2024-02-26T17:35:43;28.70;87.30
17774;DHT22;9011;33.236;-97.118;2024-02-26T17:38:12;28.50;87.10
17774;DHT22;9011;33.236;-97.118;2024-02-26T17:43:07;29.00;91.40
17774;DHT22;9011;33.236;-97.118;2024-02-26T17:45:35;29.00;87.30
17774;DHT22;9011;33.236;-97.118;2024-02-26T17:48:02;29.10;87.10
17774;DHT22;9011;33.236;-97.118;2024-02-26T17:50:30;29.00;87.10
17774;DHT22;9011;33.236;-97.118;2024-02-26T17:52:58;29.20;86.80
17774;DHT22;9011;33.236;-97.118;2024-02-26T17:55:26;29.20;85.20
17774;DHT22;9011;33.236;-97.118;2024-02-26T17:57:54;29.30;84.80
17774;DHT22;9011;33.236;-97.118;2024-02-26T18:00:22;29.50;84.20
17774;DHT22;9011;33.236;-97.118;2024-02-26T18:02:49;29.50;84.50
17774;DHT22;9011;33.236;-97.118;2024-02-26T18:05:18;29.50;85.50
17774;DHT22;9011;33.236;-97.118;2024-02-26T18:07:45;29.80;87.20
17774;DHT22;9011;33.236;-97.118;2024-02-26T18:10:13;29.80;82.50
17774;DHT22;9011;33.236;-97.118;2024-02-26T18:25:01;30.80;85.30
17774;DHT22;9011;33.236;-97.118;2024-02-26T18:37:20;30.80;87.20
17774;DHT22;9011;33.236;-97.118;2024-02-26T18:39:48;30.80;85.50
17774;DHT22;9011;33.236;-97.118;2024-02-26T18:42:15;30.60;84.10
17774;DHT22;9011;33.236;-97.118;2024-02-26T18:44:44;30.70;85.30
17774;DHT22;9011;33.236;-97.118;2024-02-26T18:47:13;30.90;86.30
17774;DHT22;9011;33.236;-97.118;2024-02-26T18:49:42;30.90;84.50
17774;DHT22;9011;33.236;-97.118;2024-02-26T18:52:10;31.10;86.00
17774;DHT22;9011;33.236;-97.118;2024-02-26T18:54:37;31.00;84.40
17774;DHT22;9011;33.236;-97.118;2024-02-26T18:57:05;31.00;84.30
17774;DHT22;9011;33.236;-97.118;2024-02-26T19:02:01;31.50;83.10
17774;DHT22;9011;33.236;-97.118;2024-02-26T19:04:31;31.60;81.90
17774;DHT22;9011;33.236;-97.118;2024-02-26T19:19:17;32.10;83.40
17774;DHT22;9011;33.236;-97.118;2024-02-26T19:21:45;31.90;82.10
17774;DHT22;9011;33.236;-97.118;2024-02-26T19:24:13;32.00;82.70
17774;DHT22;9011;33.236;-97.118;2024-02-26T19:26:42;32.00;83.70
17774;DHT22;9011;33.236;-97.118;2024-02-26T19:29:10;32.00;83.20
17774;DHT22;9011;33.236;-97.118;2024-02-26T19:31:37;32.00;83.40
17774;DHT22;9011;33.236;-97.118;2024-02-26T19:34:05;32.00;82.70
17774;DHT22;9011;33.236;-97.118;2024-02-26T19:36:32;32.10;82.20
17774;DHT22;9011;33.236;-97.118;2024-02-26T19:39:01;32.30;82.90
17774;DHT22;9011;33.236;-97.118;2024-02-26T19:41:28;32.40;81.40
17774;DHT22;9011;33.236;-97.118;2024-02-26T19:43:56;32.40;77.80
17774;DHT22;9011;33.236;-97.118;2024-02-26T19:46:24;32.50;79.70
17774;DHT22;9011;33.236;-97.118;2024-02-26T19:48:51;32.60;78.40
17774;DHT22;9011;33.236;-97.118;2024-02-26T19:51:19;32.70;76.80
17774;DHT22;9011;33.236;-97.118;2024-02-26T19:53:46;32.80;75.40
17774;DHT22;9011;33.236;-97.118;2024-02-26T19:56:15;32.90;76.30
17774;DHT22;9011;33.236;-97.118;2024-02-26T19:58:44;32.80;74.20
17774;DHT22;9011;33.236;-97.118;2024-02-26T20:01:12;32.90;73.60
17774;DHT22;9011;33.236;-97.118;2024-02-26T20:03:40;33.10;70.70
17774;DHT22;9011;33.236;-97.118;2024-02-26T20:06:11;33.10;73.80
17774;DHT22;9011;33.236;-97.118;2024-02-26T20:08:38;33.00;73.90
17774;DHT22;9011;33.236;-97.118;2024-02-26T20:11:07;33.00;73.70
17774;DHT22;9011;33.236;-97.118;2024-02-26T20:13:36;33.20;75.80
17774;DHT22;9011;33.236;-97.118;2024-02-26T20:16:05;33.30;73.20
17774;DHT22;9011;33.236;-97.118;2024-02-26T20:25:55;33.80;73.00
17774;DHT22;9011;33.236;-97.118;2024-02-26T20:40:44;33.90;72.70
17774;DHT22;9011;33.236;-97.118;2024-02-26T20:48:09;34.10;70.60